Etusivu
METAR-TAF:

METAR-TAF

Lentoasemat :

Svolværin lentoasema

Svolvær, Norja

Leveyspiiri: 68-15N, Pituuspiiri: 014-40E, korkeus merenpinnasta: 0 m

Tämänhetkinen sää

Tämä raportti tehtiin 5 tuntia ja 47 minuuttia sitten, kello 20.50 UTC
Tuuli 9 kn idästä/koillisesta
Lämpötila 11°C
Kosteus 50%
Ilmanpaine 1017 hPa
Näkyvyys 10 km tai enemmän
ei pilviä alle 1500 m:ssä eikä cumulonimbus-pilviä

METAR: ENSH 272050Z 07009KT CAVOK 11/01 Q1017 RMK WIND 150FT 06019KT

Aika: 04:37 (02:37 UTC)

Sääennuste

Tämä raportti tehtiin 9 tuntia ja 37 minuuttia sitten, kello 17.00 UTC
Ennuste voimassa 27. päivästä klo 18 UTC - 27. päivään klo 21 UTC
Tuuli 9 kn koillisesta
Näkyvyys 10 km tai enemmän
ei pilviä alle 1500 m:ssä eikä cumulonimbus-pilviä

TAF: ENSH 271700Z 2718/2721 05009KT CAVOK

Säähavainnot ja -ennusteet yli 4000 lentoasemalta (METAR- ja TAF-raportit).

Käytössä olevat sääasemat on merkitty karttaan keltaisilla ja punaisilla pisteillä.

Aseta hiiri pisteen päälle nähdäksesi sääaseman nimen.

Klikkaa sitten nähdäksesi säähavainnot ja -ennusteet.

Kartan vaihtaminen: klikkaa mustalla rastilla varustettuja vihreitä pisteitä, niin voit zoomata sisään; viivalla varustettua vihreää pistettä, niin voit zoomata ulos tai vihreitä nuolia, niin pääset viereisille kartoille.


METAR-TAF: